Αρχική σελίδα
METAR-TAF:

METAR-TAF

Αεροδρόμια :

Ραμπάτ, Μαρόκο

γεωγραφικό πλάτος: 34-03N, γεωγραφικό μήκος: 006-46W, υψόμετρο: 84 μ

Παρών καιρός

Η αναφορά έγινε 8 λεπτά πριν, στις 00:00 UTC
Άνεμος 2 kt από μεταβλητές κατευθύνσεις
Θερμοκρασία 17°C
Υγρασία 82%
Πίεση 1017 hPa
Ορατότητα 10 χλμ και άνω
Διάσπαρτα νέφη σε ύψος 2300 πόδια

METAR: GMME 170000Z VRB02KT 9999 SCT023 17/14 Q1017 NOSIG

Χρόνος: 01:08 (00:08 UTC)

Πρόγνωση Καιρού

Η αναφορά έγινε 1 ώρα και 8 λεπτά πριν, στις 23:00 UTC
Η πρόγνωση ισχύει από τις 17 στις 00 UTC έως τις 18 στις 06 UTC
Άνεμος 10 kt από
Ορατότητα: 6000 μ
Διάσπαρτα νέφη σε ύψος 2000 πόδια
Προσωρινά
από 17 στις 02 UTC έως τις 17 στις 10 UTC
Ορατότητα: 5000 μ
Αρκετά νέφη σε ύψος 1300 πόδια

TAF: GMME 162300Z 1700/1806 32010KT 6000 SCT020 TEMPO 1702/1710 5000 BKN013

Μετεωρολογικές αναφορές και προγνώσεις για περισσότερα από 4000 αεροδρόμια (δελτία METAR και TAF).

Οι διαθέσιμοι σταθμοί απεικονίζονται στο χάρτη με κίτρινες και κόκκινες κουκκίδες.

Μετακινήστε το ποντίκι πάνω από τις κουκκίδες για να δείτε το όνομα του σταθμού.

Στη συνέχεια, κάντε κλικ για να δείτε τις μετεωρολογικές αναφορές και τις προγνώσεις καιρού.

Για να αλλάξετε το χάρτη: κάντε κλικ στα πράσινα κουμπιά με τον μαύρο σταυρό για να ζουμάρετε, στο πράσινο κουμπί με την παύλα για να αφαιρέσετε το ζουμ ή στα πράσινα βέλη για να αντιπαραβάλλετε χάρτες.


METAR-TAF: